sensor_id;sensor_type;location;lat;lon;timestamp;temperature;humidity
17728;DHT22;8984;49.268;12.302;2023-05-10T00:00:41;14.90;99.90
17728;DHT22;8984;49.268;12.302;2023-05-10T00:03:07;14.90;99.90
17728;DHT22;8984;49.268;12.302;2023-05-10T00:05:34;14.90;99.90
17728;DHT22;8984;49.268;12.302;2023-05-10T00:08:01;14.90;99.90
17728;DHT22;8984;49.268;12.302;2023-05-10T00:10:28;15.00;99.90
17728;DHT22;8984;49.268;12.302;2023-05-10T00:12:56;15.00;99.90
17728;DHT22;8984;49.268;12.302;2023-05-10T00:15:22;15.00;99.90
17728;DHT22;8984;49.268;12.302;2023-05-10T00:17:49;15.00;99.90
17728;DHT22;8984;49.268;12.302;2023-05-10T00:20:16;15.00;99.90
17728;DHT22;8984;49.268;12.302;2023-05-10T00:22:43;15.00;99.90
17728;DHT22;8984;49.268;12.302;2023-05-10T00:25:09;14.90;99.90
17728;DHT22;8984;49.268;12.302;2023-05-10T00:27:36;14.90;99.90
17728;DHT22;8984;49.268;12.302;2023-05-10T00:30:07;14.90;99.90
17728;DHT22;8984;49.268;12.302;2023-05-10T00:32:34;14.80;99.90
17728;DHT22;8984;49.268;12.302;2023-05-10T00:35:00;14.80;99.90
17728;DHT22;8984;49.268;12.302;2023-05-10T00:37:27;14.70;99.90
17728;DHT22;8984;49.268;12.302;2023-05-10T00:39:54;14.60;99.90
17728;DHT22;8984;49.268;12.302;2023-05-10T00:42:21;14.60;99.90
17728;DHT22;8984;49.268;12.302;2023-05-10T00:44:48;14.50;99.90
17728;DHT22;8984;49.268;12.302;2023-05-10T00:47:17;14.40;99.90
17728;DHT22;8984;49.268;12.302;2023-05-10T00:49:44;14.40;99.90
17728;DHT22;8984;49.268;12.302;2023-05-10T00:52:12;14.40;99.90
17728;DHT22;8984;49.268;12.302;2023-05-10T00:54:39;14.40;99.90
17728;DHT22;8984;49.268;12.302;2023-05-10T00:57:06;14.40;99.90
17728;DHT22;8984;49.268;12.302;2023-05-10T00:59:33;14.40;99.90
17728;DHT22;8984;49.268;12.302;2023-05-10T01:01:59;14.40;99.90
17728;DHT22;8984;49.268;12.302;2023-05-10T01:04:28;14.50;99.90
17728;DHT22;8984;49.268;12.302;2023-05-10T01:06:55;14.50;99.90
17728;DHT22;8984;49.268;12.302;2023-05-10T01:09:24;14.50;99.90
17728;DHT22;8984;49.268;12.302;2023-05-10T01:11:51;14.50;99.90
17728;DHT22;8984;49.268;12.302;2023-05-10T01:14:19;14.50;99.90
17728;DHT22;8984;49.268;12.302;2023-05-10T01:16:48;14.50;99.90
17728;DHT22;8984;49.268;12.302;2023-05-10T01:19:19;14.30;99.90
17728;DHT22;8984;49.268;12.302;2023-05-10T01:21:54;14.30;99.90
17728;DHT22;8984;49.268;12.302;2023-05-10T01:24:46;14.30;99.90
17728;DHT22;8984;49.268;12.302;2023-05-10T01:27:40;14.30;99.90
17728;DHT22;8984;49.268;12.302;2023-05-10T01:33:18;14.30;99.90
17728;DHT22;8984;49.268;12.302;2023-05-10T01:35:51;14.30;99.90
17728;DHT22;8984;49.268;12.302;2023-05-10T01:38:24;14.30;99.90
17728;DHT22;8984;49.268;12.302;2023-05-10T01:41:00;14.40;99.90
17728;DHT22;8984;49.268;12.302;2023-05-10T01:43:39;14.40;99.90
17728;DHT22;8984;49.268;12.302;2023-05-10T01:46:16;14.50;99.90
17728;DHT22;8984;49.268;12.302;2023-05-10T01:48:48;14.50;99.90
17728;DHT22;8984;49.268;12.302;2023-05-10T01:51:21;14.50;99.90
17728;DHT22;8984;49.268;12.302;2023-05-10T01:53:54;14.60;99.90
17728;DHT22;8984;49.268;12.302;2023-05-10T01:56:24;14.60;99.90
17728;DHT22;8984;49.268;12.302;2023-05-10T01:58:52;14.60;99.90
17728;DHT22;8984;49.268;12.302;2023-05-10T02:01:20;14.60;99.90
17728;DHT22;8984;49.268;12.302;2023-05-10T02:03:50;14.60;99.90
17728;DHT22;8984;49.268;12.302;2023-05-10T02:06:18;14.60;99.90
17728;DHT22;8984;49.268;12.302;2023-05-10T02:08:47;14.50;99.90
17728;DHT22;8984;49.268;12.302;2023-05-10T02:11:17;14.60;99.90
17728;DHT22;8984;49.268;12.302;2023-05-10T02:13:44;14.60;99.90
17728;DHT22;8984;49.268;12.302;2023-05-10T02:16:13;14.70;99.90
17728;DHT22;8984;49.268;12.302;2023-05-10T02:18:41;14.80;99.90
17728;DHT22;8984;49.268;12.302;2023-05-10T02:21:10;14.80;99.90
17728;DHT22;8984;49.268;12.302;2023-05-10T02:23:37;14.80;99.90
17728;DHT22;8984;49.268;12.302;2023-05-10T02:26:06;14.90;99.90
17728;DHT22;8984;49.268;12.302;2023-05-10T02:28:34;14.90;99.90
17728;DHT22;8984;49.268;12.302;2023-05-10T02:31:03;14.90;99.90
17728;DHT22;8984;49.268;12.302;2023-05-10T02:33:31;14.90;99.90
17728;DHT22;8984;49.268;12.302;2023-05-10T02:35:59;14.90;99.90
17728;DHT22;8984;49.268;12.302;2023-05-10T02:38:28;14.90;99.90
17728;DHT22;8984;49.268;12.302;2023-05-10T02:40:57;14.80;99.90
17728;DHT22;8984;49.268;12.302;2023-05-10T02:43:24;14.80;99.90
17728;DHT22;8984;49.268;12.302;2023-05-10T02:45:52;14.80;99.90
17728;DHT22;8984;49.268;12.302;2023-05-10T02:48:19;14.80;99.90
17728;DHT22;8984;49.268;12.302;2023-05-10T02:50:47;14.80;99.90
17728;DHT22;8984;49.268;12.302;2023-05-10T02:53:20;14.70;99.90
17728;DHT22;8984;49.268;12.302;2023-05-10T02:55:52;14.70;99.90
17728;DHT22;8984;49.268;12.302;2023-05-10T02:58:19;14.70;99.90
17728;DHT22;8984;49.268;12.302;2023-05-10T03:00:46;14.60;99.90
17728;DHT22;8984;49.268;12.302;2023-05-10T03:03:13;14.60;99.90
17728;DHT22;8984;49.268;12.302;2023-05-10T03:05:40;14.60;99.90
17728;DHT22;8984;49.268;12.302;2023-05-10T03:08:07;14.70;99.90
17728;DHT22;8984;49.268;12.302;2023-05-10T03:10:40;14.70;99.90
17728;DHT22;8984;49.268;12.302;2023-05-10T03:13:20;14.60;99.90
17728;DHT22;8984;49.268;12.302;2023-05-10T03:15:55;14.60;99.90
17728;DHT22;8984;49.268;12.302;2023-05-10T03:18:33;14.60;99.90
17728;DHT22;8984;49.268;12.302;2023-05-10T03:21:04;14.60;99.90
17728;DHT22;8984;49.268;12.302;2023-05-10T03:23:40;14.50;99.90
17728;DHT22;8984;49.268;12.302;2023-05-10T03:26:08;14.40;99.90
17728;DHT22;8984;49.268;12.302;2023-05-10T03:28:36;14.40;99.90
17728;DHT22;8984;49.268;12.302;2023-05-10T03:31:04;14.30;99.90
17728;DHT22;8984;49.268;12.302;2023-05-10T03:33:32;14.30;99.90
17728;DHT22;8984;49.268;12.302;2023-05-10T03:35:59;14.30;99.90
17728;DHT22;8984;49.268;12.302;2023-05-10T03:38:26;14.20;99.90
17728;DHT22;8984;49.268;12.302;2023-05-10T03:40:52;14.20;99.90
17728;DHT22;8984;49.268;12.302;2023-05-10T03:43:20;14.20;99.90
17728;DHT22;8984;49.268;12.302;2023-05-10T03:45:48;14.20;99.90
17728;DHT22;8984;49.268;12.302;2023-05-10T03:48:15;14.10;99.90
17728;DHT22;8984;49.268;12.302;2023-05-10T03:50:41;14.10;99.90
17728;DHT22;8984;49.268;12.302;2023-05-10T03:53:08;14.10;99.90
17728;DHT22;8984;49.268;12.302;2023-05-10T03:55:35;14.00;99.90
17728;DHT22;8984;49.268;12.302;2023-05-10T03:58:02;13.90;99.90
17728;DHT22;8984;49.268;12.302;2023-05-10T04:00:28;13.90;99.90
17728;DHT22;8984;49.268;12.302;2023-05-10T04:02:56;13.90;99.90
17728;DHT22;8984;49.268;12.302;2023-05-10T04:05:23;13.80;99.90
17728;DHT22;8984;49.268;12.302;2023-05-10T04:07:51;13.80;99.90
17728;DHT22;8984;49.268;12.302;2023-05-10T04:10:18;13.80;99.90
17728;DHT22;8984;49.268;12.302;2023-05-10T04:12:46;13.80;99.90
17728;DHT22;8984;49.268;12.302;2023-05-10T04:15:13;13.70;99.90
17728;DHT22;8984;49.268;12.302;2023-05-10T04:17:40;13.80;99.90
17728;DHT22;8984;49.268;12.302;2023-05-10T04:20:09;13.80;99.90
17728;DHT22;8984;49.268;12.302;2023-05-10T04:22:36;13.80;99.90
17728;DHT22;8984;49.268;12.302;2023-05-10T04:25:03;13.80;99.90
17728;DHT22;8984;49.268;12.302;2023-05-10T04:27:30;13.70;99.90
17728;DHT22;8984;49.268;12.302;2023-05-10T04:29:57;13.70;99.90
17728;DHT22;8984;49.268;12.302;2023-05-10T04:32:24;13.70;99.90
17728;DHT22;8984;49.268;12.302;2023-05-10T04:34:51;13.70;99.90
17728;DHT22;8984;49.268;12.302;2023-05-10T04:37:19;13.70;99.90
17728;DHT22;8984;49.268;12.302;2023-05-10T04:39:48;13.70;99.90
17728;DHT22;8984;49.268;12.302;2023-05-10T04:42:15;13.60;99.90
17728;DHT22;8984;49.268;12.302;2023-05-10T04:44:42;13.60;99.90
17728;DHT22;8984;49.268;12.302;2023-05-10T04:47:09;13.70;99.90
17728;DHT22;8984;49.268;12.302;2023-05-10T04:49:36;13.80;99.90
17728;DHT22;8984;49.268;12.302;2023-05-10T04:52:03;13.90;99.90
17728;DHT22;8984;49.268;12.302;2023-05-10T04:54:31;14.00;99.90
17728;DHT22;8984;49.268;12.302;2023-05-10T04:56:58;14.00;99.90
17728;DHT22;8984;49.268;12.302;2023-05-10T04:59:25;13.90;99.90
17728;DHT22;8984;49.268;12.302;2023-05-10T05:01:52;13.90;99.90
17728;DHT22;8984;49.268;12.302;2023-05-10T05:04:18;13.90;99.90
17728;DHT22;8984;49.268;12.302;2023-05-10T05:06:45;13.90;99.90
17728;DHT22;8984;49.268;12.302;2023-05-10T05:09:12;13.80;99.90
17728;DHT22;8984;49.268;12.302;2023-05-10T05:11:40;13.90;99.90
17728;DHT22;8984;49.268;12.302;2023-05-10T05:14:07;13.90;99.90
17728;DHT22;8984;49.268;12.302;2023-05-10T05:16:33;13.90;99.90
17728;DHT22;8984;49.268;12.302;2023-05-10T05:19:00;14.00;99.90
17728;DHT22;8984;49.268;12.302;2023-05-10T05:21:27;14.10;99.90
17728;DHT22;8984;49.268;12.302;2023-05-10T05:23:54;14.10;99.90
17728;DHT22;8984;49.268;12.302;2023-05-10T05:26:21;14.10;99.90
17728;DHT22;8984;49.268;12.302;2023-05-10T05:28:49;14.10;99.90
17728;DHT22;8984;49.268;12.302;2023-05-10T05:31:19;14.10;99.90
17728;DHT22;8984;49.268;12.302;2023-05-10T05:33:46;14.10;99.90
17728;DHT22;8984;49.268;12.302;2023-05-10T05:36:13;14.00;99.90
17728;DHT22;8984;49.268;12.302;2023-05-10T05:38:39;14.00;99.90
17728;DHT22;8984;49.268;12.302;2023-05-10T05:41:06;14.00;99.90
17728;DHT22;8984;49.268;12.302;2023-05-10T05:43:33;13.90;99.90
17728;DHT22;8984;49.268;12.302;2023-05-10T05:46:01;13.90;99.90
17728;DHT22;8984;49.268;12.302;2023-05-10T05:48:29;14.00;99.90
17728;DHT22;8984;49.268;12.302;2023-05-10T05:50:56;13.90;99.90
17728;DHT22;8984;49.268;12.302;2023-05-10T05:53:23;13.80;99.90
17728;DHT22;8984;49.268;12.302;2023-05-10T05:55:53;13.80;99.90
17728;DHT22;8984;49.268;12.302;2023-05-10T05:58:21;13.80;99.90
17728;DHT22;8984;49.268;12.302;2023-05-10T06:00:48;13.90;99.90
17728;DHT22;8984;49.268;12.302;2023-05-10T06:03:16;13.90;99.90
17728;DHT22;8984;49.268;12.302;2023-05-10T06:05:42;14.00;99.90
17728;DHT22;8984;49.268;12.302;2023-05-10T06:08:09;14.10;99.90
17728;DHT22;8984;49.268;12.302;2023-05-10T06:10:36;14.10;99.90
17728;DHT22;8984;49.268;12.302;2023-05-10T06:13:03;14.30;99.90
17728;DHT22;8984;49.268;12.302;2023-05-10T06:15:30;14.20;99.90
17728;DHT22;8984;49.268;12.302;2023-05-10T06:17:57;14.30;99.90
17728;DHT22;8984;49.268;12.302;2023-05-10T06:20:25;14.40;99.90
17728;DHT22;8984;49.268;12.302;2023-05-10T06:22:52;14.50;99.90
17728;DHT22;8984;49.268;12.302;2023-05-10T06:25:19;14.50;99.90
17728;DHT22;8984;49.268;12.302;2023-05-10T06:27:46;14.60;99.90
17728;DHT22;8984;49.268;12.302;2023-05-10T06:30:13;14.70;99.90
17728;DHT22;8984;49.268;12.302;2023-05-10T06:32:41;14.70;99.90
17728;DHT22;8984;49.268;12.302;2023-05-10T06:35:09;14.80;99.90
17728;DHT22;8984;49.268;12.302;2023-05-10T06:37:37;14.80;99.90
17728;DHT22;8984;49.268;12.302;2023-05-10T06:40:06;14.90;99.90
17728;DHT22;8984;49.268;12.302;2023-05-10T06:42:33;14.90;99.90
17728;DHT22;8984;49.268;12.302;2023-05-10T06:45:00;15.00;99.90
17728;DHT22;8984;49.268;12.302;2023-05-10T06:47:26;15.00;99.90
17728;DHT22;8984;49.268;12.302;2023-05-10T06:49:53;15.00;99.90
17728;DHT22;8984;49.268;12.302;2023-05-10T06:52:21;15.10;99.90
17728;DHT22;8984;49.268;12.302;2023-05-10T06:54:49;15.10;99.90
17728;DHT22;8984;49.268;12.302;2023-05-10T06:57:17;15.20;99.90
17728;DHT22;8984;49.268;12.302;2023-05-10T06:59:44;15.00;99.90
17728;DHT22;8984;49.268;12.302;2023-05-10T07:02:11;15.10;99.90
17728;DHT22;8984;49.268;12.302;2023-05-10T07:04:38;15.20;99.90
17728;DHT22;8984;49.268;12.302;2023-05-10T07:07:05;15.10;99.90
17728;DHT22;8984;49.268;12.302;2023-05-10T07:09:31;15.20;99.90
17728;DHT22;8984;49.268;12.302;2023-05-10T07:12:00;15.20;99.90
17728;DHT22;8984;49.268;12.302;2023-05-10T07:14:27;15.20;99.90
17728;DHT22;8984;49.268;12.302;2023-05-10T07:16:54;15.20;99.90
17728;DHT22;8984;49.268;12.302;2023-05-10T07:19:21;15.30;99.90
17728;DHT22;8984;49.268;12.302;2023-05-10T07:21:48;15.30;99.90
17728;DHT22;8984;49.268;12.302;2023-05-10T07:24:16;15.40;99.90
17728;DHT22;8984;49.268;12.302;2023-05-10T07:26:43;15.50;99.90
17728;DHT22;8984;49.268;12.302;2023-05-10T07:29:11;15.40;99.90
17728;DHT22;8984;49.268;12.302;2023-05-10T07:31:37;15.50;99.90
17728;DHT22;8984;49.268;12.302;2023-05-10T07:34:07;15.50;99.90
17728;DHT22;8984;49.268;12.302;2023-05-10T07:36:34;15.50;99.90
17728;DHT22;8984;49.268;12.302;2023-05-10T07:39:00;15.50;99.90
17728;DHT22;8984;49.268;12.302;2023-05-10T07:41:27;15.50;99.90
17728;DHT22;8984;49.268;12.302;2023-05-10T07:43:54;15.40;99.90
17728;DHT22;8984;49.268;12.302;2023-05-10T07:46:22;15.50;99.90
17728;DHT22;8984;49.268;12.302;2023-05-10T07:48:49;15.50;99.90
17728;DHT22;8984;49.268;12.302;2023-05-10T07:51:16;15.50;99.90
17728;DHT22;8984;49.268;12.302;2023-05-10T07:53:43;15.60;99.90
17728;DHT22;8984;49.268;12.302;2023-05-10T07:56:23;15.60;99.90
17728;DHT22;8984;49.268;12.302;2023-05-10T07:58:53;15.70;99.90
17728;DHT22;8984;49.268;12.302;2023-05-10T08:01:21;15.70;99.90
17728;DHT22;8984;49.268;12.302;2023-05-10T08:03:49;15.90;99.90
17728;DHT22;8984;49.268;12.302;2023-05-10T08:06:17;16.00;99.90
17728;DHT22;8984;49.268;12.302;2023-05-10T08:08:45;16.10;99.90
17728;DHT22;8984;49.268;12.302;2023-05-10T08:11:14;16.20;99.90
17728;DHT22;8984;49.268;12.302;2023-05-10T08:13:41;16.20;99.90
17728;DHT22;8984;49.268;12.302;2023-05-10T08:16:08;16.30;99.90
17728;DHT22;8984;49.268;12.302;2023-05-10T08:18:36;16.60;99.90
17728;DHT22;8984;49.268;12.302;2023-05-10T08:21:03;16.60;99.90
17728;DHT22;8984;49.268;12.302;2023-05-10T08:23:30;16.80;99.90
17728;DHT22;8984;49.268;12.302;2023-05-10T08:25:57;17.00;99.90
17728;DHT22;8984;49.268;12.302;2023-05-10T08:28:24;17.10;99.90
17728;DHT22;8984;49.268;12.302;2023-05-10T08:30:51;17.20;99.90
17728;DHT22;8984;49.268;12.302;2023-05-10T08:33:18;17.30;99.90
17728;DHT22;8984;49.268;12.302;2023-05-10T08:35:46;17.20;99.90
17728;DHT22;8984;49.268;12.302;2023-05-10T08:38:13;17.40;99.90
17728;DHT22;8984;49.268;12.302;2023-05-10T08:40:42;17.40;99.90
17728;DHT22;8984;49.268;12.302;2023-05-10T08:43:10;17.50;99.90
17728;DHT22;8984;49.268;12.302;2023-05-10T08:45:39;17.50;99.90
17728;DHT22;8984;49.268;12.302;2023-05-10T08:48:07;17.40;99.90
17728;DHT22;8984;49.268;12.302;2023-05-10T08:50:35;17.40;99.90
17728;DHT22;8984;49.268;12.302;2023-05-10T08:53:06;17.20;99.90
17728;DHT22;8984;49.268;12.302;2023-05-10T08:55:33;17.30;99.90
17728;DHT22;8984;49.268;12.302;2023-05-10T08:58:02;17.30;99.90
17728;DHT22;8984;49.268;12.302;2023-05-10T09:00:29;17.20;99.90
17728;DHT22;8984;49.268;12.302;2023-05-10T09:02:56;17.20;99.90
17728;DHT22;8984;49.268;12.302;2023-05-10T09:05:23;17.10;99.90
17728;DHT22;8984;49.268;12.302;2023-05-10T09:07:50;17.00;99.90
17728;DHT22;8984;49.268;12.302;2023-05-10T09:10:18;16.90;99.90
17728;DHT22;8984;49.268;12.302;2023-05-10T09:12:45;17.10;99.90
17728;DHT22;8984;49.268;12.302;2023-05-10T09:15:15;17.10;99.90
17728;DHT22;8984;49.268;12.302;2023-05-10T09:17:45;17.10;99.90
17728;DHT22;8984;49.268;12.302;2023-05-10T09:20:12;17.20;99.90
17728;DHT22;8984;49.268;12.302;2023-05-10T09:22:39;17.10;99.90
17728;DHT22;8984;49.268;12.302;2023-05-10T09:25:07;17.10;99.90
17728;DHT22;8984;49.268;12.302;2023-05-10T09:27:36;17.20;99.90
17728;DHT22;8984;49.268;12.302;2023-05-10T09:30:05;17.10;99.90
17728;DHT22;8984;49.268;12.302;2023-05-10T09:32:39;17.10;99.90
17728;DHT22;8984;49.268;12.302;2023-05-10T09:35:07;17.10;99.90
17728;DHT22;8984;49.268;12.302;2023-05-10T09:37:34;16.90;99.90
17728;DHT22;8984;49.268;12.302;2023-05-10T09:40:04;16.80;99.90
17728;DHT22;8984;49.268;12.302;2023-05-10T09:42:31;16.80;99.90
17728;DHT22;8984;49.268;12.302;2023-05-10T09:45:02;16.90;99.90
17728;DHT22;8984;49.268;12.302;2023-05-10T09:47:29;16.90;99.90
17728;DHT22;8984;49.268;12.302;2023-05-10T09:49:58;16.90;99.90
17728;DHT22;8984;49.268;12.302;2023-05-10T09:52:28;17.00;99.90
17728;DHT22;8984;49.268;12.302;2023-05-10T09:54:56;17.10;99.90
17728;DHT22;8984;49.268;12.302;2023-05-10T09:57:24;17.20;99.90
17728;DHT22;8984;49.268;12.302;2023-05-10T09:59:50;17.10;99.90
17728;DHT22;8984;49.268;12.302;2023-05-10T10:02:21;17.30;99.90
17728;DHT22;8984;49.268;12.302;2023-05-10T10:04:55;17.50;99.90
17728;DHT22;8984;49.268;12.302;2023-05-10T10:07:23;17.50;99.90
17728;DHT22;8984;49.268;12.302;2023-05-10T10:09:51;17.70;99.90
17728;DHT22;8984;49.268;12.302;2023-05-10T10:12:18;17.90;99.90
17728;DHT22;8984;49.268;12.302;2023-05-10T10:14:46;18.10;99.90
17728;DHT22;8984;49.268;12.302;2023-05-10T10:17:13;18.20;99.90
17728;DHT22;8984;49.268;12.302;2023-05-10T10:19:41;18.20;99.90
17728;DHT22;8984;49.268;12.302;2023-05-10T10:22:09;18.00;99.90
17728;DHT22;8984;49.268;12.302;2023-05-10T10:24:37;18.10;99.90
17728;DHT22;8984;49.268;12.302;2023-05-10T10:27:12;18.10;99.90
17728;DHT22;8984;49.268;12.302;2023-05-10T10:29:48;18.20;99.90
17728;DHT22;8984;49.268;12.302;2023-05-10T10:32:24;18.20;99.90
17728;DHT22;8984;49.268;12.302;2023-05-10T10:34:54;18.10;99.90
17728;DHT22;8984;49.268;12.302;2023-05-10T10:37:21;18.20;99.90
17728;DHT22;8984;49.268;12.302;2023-05-10T10:39:48;18.00;99.90
17728;DHT22;8984;49.268;12.302;2023-05-10T10:42:45;18.00;99.90
17728;DHT22;8984;49.268;12.302;2023-05-10T10:45:12;18.10;99.90
17728;DHT22;8984;49.268;12.302;2023-05-10T10:47:39;18.00;99.90
17728;DHT22;8984;49.268;12.302;2023-05-10T10:50:09;17.90;99.90
17728;DHT22;8984;49.268;12.302;2023-05-10T10:52:39;17.80;99.90
17728;DHT22;8984;49.268;12.302;2023-05-10T10:55:07;17.90;99.90
17728;DHT22;8984;49.268;12.302;2023-05-10T10:57:44;17.90;99.90
17728;DHT22;8984;49.268;12.302;2023-05-10T11:00:19;17.80;99.90
17728;DHT22;8984;49.268;12.302;2023-05-10T11:02:47;17.90;99.90
17728;DHT22;8984;49.268;12.302;2023-05-10T11:05:33;17.90;99.90
17728;DHT22;8984;49.268;12.302;2023-05-10T11:08:00;18.00;99.90
17728;DHT22;8984;49.268;12.302;2023-05-10T11:10:32;18.00;99.90
17728;DHT22;8984;49.268;12.302;2023-05-10T11:13:00;18.20;99.90
17728;DHT22;8984;49.268;12.302;2023-05-10T11:15:31;18.30;99.90
17728;DHT22;8984;49.268;12.302;2023-05-10T11:17:58;18.40;99.90
17728;DHT22;8984;49.268;12.302;2023-05-10T11:20:32;18.50;99.90
17728;DHT22;8984;49.268;12.302;2023-05-10T11:23:12;18.60;99.90
17728;DHT22;8984;49.268;12.302;2023-05-10T11:25:42;18.60;99.90
17728;DHT22;8984;49.268;12.302;2023-05-10T11:28:10;18.70;99.90
17728;DHT22;8984;49.268;12.302;2023-05-10T11:30:37;18.90;99.90
17728;DHT22;8984;49.268;12.302;2023-05-10T11:33:05;18.90;99.90
17728;DHT22;8984;49.268;12.302;2023-05-10T11:35:36;19.00;99.90
17728;DHT22;8984;49.268;12.302;2023-05-10T11:38:05;19.20;99.90
17728;DHT22;8984;49.268;12.302;2023-05-10T11:40:32;19.10;99.90
17728;DHT22;8984;49.268;12.302;2023-05-10T11:42:59;19.40;99.90
17728;DHT22;8984;49.268;12.302;2023-05-10T11:45:26;19.60;99.90
17728;DHT22;8984;49.268;12.302;2023-05-10T11:47:54;19.60;99.90
17728;DHT22;8984;49.268;12.302;2023-05-10T11:50:21;19.70;99.90
17728;DHT22;8984;49.268;12.302;2023-05-10T11:52:52;19.70;99.90
17728;DHT22;8984;49.268;12.302;2023-05-10T11:55:18;19.80;99.90
17728;DHT22;8984;49.268;12.302;2023-05-10T11:57:46;19.80;99.90
17728;DHT22;8984;49.268;12.302;2023-05-10T12:00:13;19.90;99.90
17728;DHT22;8984;49.268;12.302;2023-05-10T12:02:40;19.90;99.90
17728;DHT22;8984;49.268;12.302;2023-05-10T12:05:08;20.10;99.90
17728;DHT22;8984;49.268;12.302;2023-05-10T12:07:35;20.30;99.90
17728;DHT22;8984;49.268;12.302;2023-05-10T12:10:10;20.50;99.90
17728;DHT22;8984;49.268;12.302;2023-05-10T12:12:40;20.80;99.90
17728;DHT22;8984;49.268;12.302;2023-05-10T12:15:12;21.00;99.90
17728;DHT22;8984;49.268;12.302;2023-05-10T12:17:44;21.10;99.90
17728;DHT22;8984;49.268;12.302;2023-05-10T12:20:15;21.20;99.90
17728;DHT22;8984;49.268;12.302;2023-05-10T12:22:47;21.40;99.90
17728;DHT22;8984;49.268;12.302;2023-05-10T12:25:17;21.50;99.90
17728;DHT22;8984;49.268;12.302;2023-05-10T12:27:55;21.60;99.90
17728;DHT22;8984;49.268;12.302;2023-05-10T12:30:22;21.60;99.90
17728;DHT22;8984;49.268;12.302;2023-05-10T12:32:50;21.50;99.90
17728;DHT22;8984;49.268;12.302;2023-05-10T12:35:17;21.60;99.90
17728;DHT22;8984;49.268;12.302;2023-05-10T12:37:46;21.60;99.90
17728;DHT22;8984;49.268;12.302;2023-05-10T12:40:13;21.30;99.90
17728;DHT22;8984;49.268;12.302;2023-05-10T12:42:41;21.20;99.90
17728;DHT22;8984;49.268;12.302;2023-05-10T12:45:11;21.10;99.90
17728;DHT22;8984;49.268;12.302;2023-05-10T12:47:38;21.10;99.90
17728;DHT22;8984;49.268;12.302;2023-05-10T12:50:05;21.20;99.90
17728;DHT22;8984;49.268;12.302;2023-05-10T12:52:32;21.30;99.90
17728;DHT22;8984;49.268;12.302;2023-05-10T12:55:00;21.30;99.90
17728;DHT22;8984;49.268;12.302;2023-05-10T12:57:28;21.30;99.90
17728;DHT22;8984;49.268;12.302;2023-05-10T12:59:56;21.10;99.90
17728;DHT22;8984;49.268;12.302;2023-05-10T13:02:23;20.70;99.90
17728;DHT22;8984;49.268;12.302;2023-05-10T13:04:50;20.40;99.90
17728;DHT22;8984;49.268;12.302;2023-05-10T13:07:16;20.40;99.90
17728;DHT22;8984;49.268;12.302;2023-05-10T13:09:43;20.20;99.90
17728;DHT22;8984;49.268;12.302;2023-05-10T13:12:10;19.80;99.90
17728;DHT22;8984;49.268;12.302;2023-05-10T13:14:37;19.40;99.90
17728;DHT22;8984;49.268;12.302;2023-05-10T13:17:07;19.30;99.90
17728;DHT22;8984;49.268;12.302;2023-05-10T13:19:34;19.20;99.90
17728;DHT22;8984;49.268;12.302;2023-05-10T13:22:00;19.20;99.90
17728;DHT22;8984;49.268;12.302;2023-05-10T13:24:27;19.10;99.90
17728;DHT22;8984;49.268;12.302;2023-05-10T13:26:54;19.00;99.90
17728;DHT22;8984;49.268;12.302;2023-05-10T13:29:21;18.60;99.90
17728;DHT22;8984;49.268;12.302;2023-05-10T13:31:48;18.50;99.90
17728;DHT22;8984;49.268;12.302;2023-05-10T13:34:16;18.30;99.90
17728;DHT22;8984;49.268;12.302;2023-05-10T13:36:45;18.20;99.90
17728;DHT22;8984;49.268;12.302;2023-05-10T13:39:12;18.30;99.90
17728;DHT22;8984;49.268;12.302;2023-05-10T13:41:39;18.20;99.90
17728;DHT22;8984;49.268;12.302;2023-05-10T13:44:06;18.30;99.90
17728;DHT22;8984;49.268;12.302;2023-05-10T13:46:33;18.30;99.90
17728;DHT22;8984;49.268;12.302;2023-05-10T13:49:00;18.30;99.90
17728;DHT22;8984;49.268;12.302;2023-05-10T13:51:28;18.30;99.90
17728;DHT22;8984;49.268;12.302;2023-05-10T13:53:57;18.30;99.90
17728;DHT22;8984;49.268;12.302;2023-05-10T13:56:23;18.30;99.90
17728;DHT22;8984;49.268;12.302;2023-05-10T13:58:50;18.20;99.90
17728;DHT22;8984;49.268;12.302;2023-05-10T14:01:17;18.20;99.90
17728;DHT22;8984;49.268;12.302;2023-05-10T14:03:44;18.10;99.90
17728;DHT22;8984;49.268;12.302;2023-05-10T14:06:11;18.10;99.90
17728;DHT22;8984;49.268;12.302;2023-05-10T14:08:39;18.20;99.90
17728;DHT22;8984;49.268;12.302;2023-05-10T14:11:06;18.20;99.90
17728;DHT22;8984;49.268;12.302;2023-05-10T14:13:33;18.30;99.90
17728;DHT22;8984;49.268;12.302;2023-05-10T14:16:01;18.30;99.90
17728;DHT22;8984;49.268;12.302;2023-05-10T14:18:27;18.40;99.90
17728;DHT22;8984;49.268;12.302;2023-05-10T14:20:54;18.40;99.90
17728;DHT22;8984;49.268;12.302;2023-05-10T14:23:21;18.40;99.90
17728;DHT22;8984;49.268;12.302;2023-05-10T14:25:51;18.50;99.90
17728;DHT22;8984;49.268;12.302;2023-05-10T14:28:18;18.60;99.90
17728;DHT22;8984;49.268;12.302;2023-05-10T14:30:46;18.60;99.90
17728;DHT22;8984;49.268;12.302;2023-05-10T14:33:13;18.60;99.90
17728;DHT22;8984;49.268;12.302;2023-05-10T14:35:39;18.60;99.90
17728;DHT22;8984;49.268;12.302;2023-05-10T14:38:06;18.70;99.90
17728;DHT22;8984;49.268;12.302;2023-05-10T14:40:33;18.60;99.90
17728;DHT22;8984;49.268;12.302;2023-05-10T14:43:01;18.60;99.90
17728;DHT22;8984;49.268;12.302;2023-05-10T14:45:28;18.50;99.90
17728;DHT22;8984;49.268;12.302;2023-05-10T14:47:55;18.50;99.90
17728;DHT22;8984;49.268;12.302;2023-05-10T14:50:22;18.40;99.90
17728;DHT22;8984;49.268;12.302;2023-05-10T14:52:49;18.40;99.90
17728;DHT22;8984;49.268;12.302;2023-05-10T14:55:15;18.40;99.90
17728;DHT22;8984;49.268;12.302;2023-05-10T14:57:42;18.50;99.90
17728;DHT22;8984;49.268;12.302;2023-05-10T15:00:14;18.60;99.90
17728;DHT22;8984;49.268;12.302;2023-05-10T15:02:42;18.60;99.90
17728;DHT22;8984;49.268;12.302;2023-05-10T15:05:08;18.70;99.90
17728;DHT22;8984;49.268;12.302;2023-05-10T15:07:35;18.70;99.90
17728;DHT22;8984;49.268;12.302;2023-05-10T15:10:03;18.90;99.90
17728;DHT22;8984;49.268;12.302;2023-05-10T15:12:30;19.00;99.90
17728;DHT22;8984;49.268;12.302;2023-05-10T15:14:56;19.00;99.90
17728;DHT22;8984;49.268;12.302;2023-05-10T15:17:26;19.00;99.90
17728;DHT22;8984;49.268;12.302;2023-05-10T15:19:52;19.00;99.90
17728;DHT22;8984;49.268;12.302;2023-05-10T15:22:19;19.00;99.90
17728;DHT22;8984;49.268;12.302;2023-05-10T15:24:46;18.90;99.90
17728;DHT22;8984;49.268;12.302;2023-05-10T15:27:13;18.90;99.90
17728;DHT22;8984;49.268;12.302;2023-05-10T15:29:40;19.00;99.90
17728;DHT22;8984;49.268;12.302;2023-05-10T15:32:07;18.90;99.90
17728;DHT22;8984;49.268;12.302;2023-05-10T15:34:35;19.00;99.90
17728;DHT22;8984;49.268;12.302;2023-05-10T15:37:02;19.00;99.90
17728;DHT22;8984;49.268;12.302;2023-05-10T15:39:29;19.10;99.90